Terminal Aerodrome Forecast
Issued by NWS

Home | Current Version | Previous Version | Text Only | Print | Product List | Glossary On
Versions: 1 2 3 4 5 6 7 8 9 10 11 12 13 14 15 16 17 18 19 20 21 22 23 24 25 26 27 28 29 30 31 32
000
FTUS41 KBTV 061315 AAA
TAFPBG
TAF AMD
KPBG 061315Z 0613/0712 18008KT P6SM VCSH OVC045
      TEMPO 0613/0616 6SM -SHSN BKN035
     FM061800 18009KT P6SM OVC045
     FM070200 22007KT P6SM BKN070
     FM070700 23007KT P6SM SCT045=

USA.gov is the U.S. government's official web portal to all federal, state and local government web resources and services.